sensor_id;sensor_type;location;lat;lon;timestamp;temperature;humidity
44271;DHT22;29963;44.594;11.368;2023-02-01T00:01:48;6.60;99.90
44271;DHT22;29963;44.594;11.368;2023-02-01T00:04:13;6.60;99.90
44271;DHT22;29963;44.594;11.368;2023-02-01T00:06:39;6.60;99.90
44271;DHT22;29963;44.594;11.368;2023-02-01T00:09:05;6.60;99.90
44271;DHT22;29963;44.594;11.368;2023-02-01T00:11:33;6.50;99.90
44271;DHT22;29963;44.594;11.368;2023-02-01T00:13:58;6.50;99.90
44271;DHT22;29963;44.594;11.368;2023-02-01T00:16:27;6.50;99.90
44271;DHT22;29963;44.594;11.368;2023-02-01T00:19:09;6.50;99.90
44271;DHT22;29963;44.594;11.368;2023-02-01T00:21:34;6.50;99.90
44271;DHT22;29963;44.594;11.368;2023-02-01T00:24:00;6.40;99.90
44271;DHT22;29963;44.594;11.368;2023-02-01T00:26:35;6.40;99.90
44271;DHT22;29963;44.594;11.368;2023-02-01T00:29:03;6.30;99.90
44271;DHT22;29963;44.594;11.368;2023-02-01T00:31:29;6.30;99.90
44271;DHT22;29963;44.594;11.368;2023-02-01T00:33:57;6.30;99.90
44271;DHT22;29963;44.594;11.368;2023-02-01T00:36:22;6.30;99.90
44271;DHT22;29963;44.594;11.368;2023-02-01T00:38:48;6.30;99.90
44271;DHT22;29963;44.594;11.368;2023-02-01T00:41:16;6.30;99.90
44271;DHT22;29963;44.594;11.368;2023-02-01T00:43:44;6.20;99.90
44271;DHT22;29963;44.594;11.368;2023-02-01T00:46:10;6.20;99.90
44271;DHT22;29963;44.594;11.368;2023-02-01T00:48:37;6.20;99.90
44271;DHT22;29963;44.594;11.368;2023-02-01T00:51:05;6.20;99.90
44271;DHT22;29963;44.594;11.368;2023-02-01T00:53:32;6.20;99.90
44271;DHT22;29963;44.594;11.368;2023-02-01T00:55:58;6.10;99.90
44271;DHT22;29963;44.594;11.368;2023-02-01T00:58:24;6.10;99.90
44271;DHT22;29963;44.594;11.368;2023-02-01T01:01:21;6.20;99.90
44271;DHT22;29963;44.594;11.368;2023-02-01T01:03:50;6.20;99.90
44271;DHT22;29963;44.594;11.368;2023-02-01T01:06:21;6.20;99.90
44271;DHT22;29963;44.594;11.368;2023-02-01T01:08:47;6.20;99.90
44271;DHT22;29963;44.594;11.368;2023-02-01T01:11:18;6.20;99.90
44271;DHT22;29963;44.594;11.368;2023-02-01T01:13:47;6.10;99.90
44271;DHT22;29963;44.594;11.368;2023-02-01T01:16:13;6.20;99.90
44271;DHT22;29963;44.594;11.368;2023-02-01T01:18:42;6.20;99.90
44271;DHT22;29963;44.594;11.368;2023-02-01T01:21:09;6.10;99.90
44271;DHT22;29963;44.594;11.368;2023-02-01T01:23:35;6.10;99.90
44271;DHT22;29963;44.594;11.368;2023-02-01T01:26:05;6.00;99.90
44271;DHT22;29963;44.594;11.368;2023-02-01T01:28:31;6.00;99.90
44271;DHT22;29963;44.594;11.368;2023-02-01T01:30:56;5.90;99.90
44271;DHT22;29963;44.594;11.368;2023-02-01T01:33:22;5.80;99.90
44271;DHT22;29963;44.594;11.368;2023-02-01T01:35:47;5.90;99.90
44271;DHT22;29963;44.594;11.368;2023-02-01T01:38:13;5.90;99.90
44271;DHT22;29963;44.594;11.368;2023-02-01T01:40:45;5.90;99.90
44271;DHT22;29963;44.594;11.368;2023-02-01T01:43:17;5.80;99.90
44271;DHT22;29963;44.594;11.368;2023-02-01T01:45:43;5.80;99.90
44271;DHT22;29963;44.594;11.368;2023-02-01T01:48:21;5.80;99.90
44271;DHT22;29963;44.594;11.368;2023-02-01T01:50:55;5.90;99.90
44271;DHT22;29963;44.594;11.368;2023-02-01T01:53:29;5.90;99.90
44271;DHT22;29963;44.594;11.368;2023-02-01T01:55:56;5.90;99.90
44271;DHT22;29963;44.594;11.368;2023-02-01T01:58:24;6.00;99.90
44271;DHT22;29963;44.594;11.368;2023-02-01T02:00:52;6.00;99.90
44271;DHT22;29963;44.594;11.368;2023-02-01T02:03:21;6.00;99.90
44271;DHT22;29963;44.594;11.368;2023-02-01T02:05:50;6.00;99.90
44271;DHT22;29963;44.594;11.368;2023-02-01T02:08:18;6.00;99.90
44271;DHT22;29963;44.594;11.368;2023-02-01T02:10:49;5.90;99.90
44271;DHT22;29963;44.594;11.368;2023-02-01T02:13:46;5.90;99.90
44271;DHT22;29963;44.594;11.368;2023-02-01T02:16:22;6.00;99.90
44271;DHT22;29963;44.594;11.368;2023-02-01T02:27:41;6.10;99.90
44271;DHT22;29963;44.594;11.368;2023-02-01T02:38:32;6.20;99.90
44271;DHT22;29963;44.594;11.368;2023-02-01T02:43:23;6.20;99.90
44271;DHT22;29963;44.594;11.368;2023-02-01T02:46:37;6.20;99.90
44271;DHT22;29963;44.594;11.368;2023-02-01T02:49:28;6.20;99.90
44271;DHT22;29963;44.594;11.368;2023-02-01T02:52:03;6.10;99.90
44271;DHT22;29963;44.594;11.368;2023-02-01T02:54:50;6.00;99.90
44271;DHT22;29963;44.594;11.368;2023-02-01T03:00:18;5.90;99.90
44271;DHT22;29963;44.594;11.368;2023-02-01T03:03:03;5.80;99.90
44271;DHT22;29963;44.594;11.368;2023-02-01T03:05:49;5.80;99.90
44271;DHT22;29963;44.594;11.368;2023-02-01T03:08:23;5.70;99.90
44271;DHT22;29963;44.594;11.368;2023-02-01T03:13:35;5.60;99.90
44271;DHT22;29963;44.594;11.368;2023-02-01T03:21:06;5.40;99.90
44271;DHT22;29963;44.594;11.368;2023-02-01T03:23:35;5.40;99.90
44271;DHT22;29963;44.594;11.368;2023-02-01T03:26:04;5.40;99.90
44271;DHT22;29963;44.594;11.368;2023-02-01T03:28:33;5.30;99.90
44271;DHT22;29963;44.594;11.368;2023-02-01T03:31:02;5.20;99.90
44271;DHT22;29963;44.594;11.368;2023-02-01T03:33:29;5.10;99.90
44271;DHT22;29963;44.594;11.368;2023-02-01T03:43:44;4.80;99.90
44271;DHT22;29963;44.594;11.368;2023-02-01T03:46:19;4.60;99.90
44271;DHT22;29963;44.594;11.368;2023-02-01T03:48:46;4.60;99.90
44271;DHT22;29963;44.594;11.368;2023-02-01T03:51:13;4.50;99.90
44271;DHT22;29963;44.594;11.368;2023-02-01T03:53:40;4.60;99.90
44271;DHT22;29963;44.594;11.368;2023-02-01T03:56:08;4.60;99.90
44271;DHT22;29963;44.594;11.368;2023-02-01T03:58:37;4.60;99.90
44271;DHT22;29963;44.594;11.368;2023-02-01T04:01:02;4.60;99.90
44271;DHT22;29963;44.594;11.368;2023-02-01T04:03:28;4.50;99.90
44271;DHT22;29963;44.594;11.368;2023-02-01T04:05:54;4.40;99.90
44271;DHT22;29963;44.594;11.368;2023-02-01T04:08:21;4.20;99.90
44271;DHT22;29963;44.594;11.368;2023-02-01T04:10:46;4.10;99.90
44271;DHT22;29963;44.594;11.368;2023-02-01T04:13:12;3.80;99.90
44271;DHT22;29963;44.594;11.368;2023-02-01T04:15:38;3.80;99.90
44271;DHT22;29963;44.594;11.368;2023-02-01T04:18:04;3.80;99.90
44271;DHT22;29963;44.594;11.368;2023-02-01T04:20:29;3.70;99.90
44271;DHT22;29963;44.594;11.368;2023-02-01T04:22:55;3.70;99.90
44271;DHT22;29963;44.594;11.368;2023-02-01T04:25:21;4.40;99.90
44271;DHT22;29963;44.594;11.368;2023-02-01T04:27:47;3.90;99.90
44271;DHT22;29963;44.594;11.368;2023-02-01T04:30:13;4.00;99.90
44271;DHT22;29963;44.594;11.368;2023-02-01T04:32:39;3.90;99.90
44271;DHT22;29963;44.594;11.368;2023-02-01T04:35:06;3.80;99.90
44271;DHT22;29963;44.594;11.368;2023-02-01T04:37:32;3.60;99.90
44271;DHT22;29963;44.594;11.368;2023-02-01T04:39:57;3.50;99.90
44271;DHT22;29963;44.594;11.368;2023-02-01T04:42:25;3.40;99.90
44271;DHT22;29963;44.594;11.368;2023-02-01T04:44:51;3.40;99.90
44271;DHT22;29963;44.594;11.368;2023-02-01T04:47:17;3.40;99.90
44271;DHT22;29963;44.594;11.368;2023-02-01T04:49:42;3.40;99.90
44271;DHT22;29963;44.594;11.368;2023-02-01T04:52:08;4.50;99.90
44271;DHT22;29963;44.594;11.368;2023-02-01T04:54:34;3.40;99.90
44271;DHT22;29963;44.594;11.368;2023-02-01T04:57:03;3.40;99.90
44271;DHT22;29963;44.594;11.368;2023-02-01T04:59:28;3.40;99.90
44271;DHT22;29963;44.594;11.368;2023-02-01T05:01:54;3.40;99.90
44271;DHT22;29963;44.594;11.368;2023-02-01T05:04:19;3.30;99.90
44271;DHT22;29963;44.594;11.368;2023-02-01T05:06:45;3.30;99.90
44271;DHT22;29963;44.594;11.368;2023-02-01T05:09:11;3.30;99.90
44271;DHT22;29963;44.594;11.368;2023-02-01T05:11:37;3.30;99.90
44271;DHT22;29963;44.594;11.368;2023-02-01T05:14:21;3.20;99.90
44271;DHT22;29963;44.594;11.368;2023-02-01T05:16:46;3.30;99.90
44271;DHT22;29963;44.594;11.368;2023-02-01T05:19:12;3.40;99.90
44271;DHT22;29963;44.594;11.368;2023-02-01T05:21:38;3.40;99.90
44271;DHT22;29963;44.594;11.368;2023-02-01T05:24:08;3.50;99.90
44271;DHT22;29963;44.594;11.368;2023-02-01T05:26:40;3.60;99.90
44271;DHT22;29963;44.594;11.368;2023-02-01T05:29:07;3.60;99.90
44271;DHT22;29963;44.594;11.368;2023-02-01T05:31:33;3.60;99.90
44271;DHT22;29963;44.594;11.368;2023-02-01T05:33:59;3.40;99.90
44271;DHT22;29963;44.594;11.368;2023-02-01T05:36:24;3.40;99.90
44271;DHT22;29963;44.594;11.368;2023-02-01T05:38:50;3.40;99.90
44271;DHT22;29963;44.594;11.368;2023-02-01T05:41:16;3.50;99.90
44271;DHT22;29963;44.594;11.368;2023-02-01T05:43:42;3.50;99.90
44271;DHT22;29963;44.594;11.368;2023-02-01T05:46:07;3.50;99.90
44271;DHT22;29963;44.594;11.368;2023-02-01T05:48:36;3.40;99.90
44271;DHT22;29963;44.594;11.368;2023-02-01T05:51:01;3.40;99.90
44271;DHT22;29963;44.594;11.368;2023-02-01T05:53:27;3.40;99.90
44271;DHT22;29963;44.594;11.368;2023-02-01T05:55:53;3.30;99.90
44271;DHT22;29963;44.594;11.368;2023-02-01T05:58:18;3.30;99.90
44271;DHT22;29963;44.594;11.368;2023-02-01T06:00:44;3.30;99.90
44271;DHT22;29963;44.594;11.368;2023-02-01T06:03:09;3.20;99.90
44271;DHT22;29963;44.594;11.368;2023-02-01T06:05:35;3.10;99.90
44271;DHT22;29963;44.594;11.368;2023-02-01T06:08:02;3.20;99.90
44271;DHT22;29963;44.594;11.368;2023-02-01T06:10:28;3.10;99.90
44271;DHT22;29963;44.594;11.368;2023-02-01T06:12:53;3.10;99.90
44271;DHT22;29963;44.594;11.368;2023-02-01T06:15:19;3.00;99.90
44271;DHT22;29963;44.594;11.368;2023-02-01T06:17:46;3.00;99.90
44271;DHT22;29963;44.594;11.368;2023-02-01T06:20:13;3.00;99.90
44271;DHT22;29963;44.594;11.368;2023-02-01T06:22:40;3.00;99.90
44271;DHT22;29963;44.594;11.368;2023-02-01T06:25:07;3.00;99.90
44271;DHT22;29963;44.594;11.368;2023-02-01T06:27:33;3.10;99.90
44271;DHT22;29963;44.594;11.368;2023-02-01T06:29:59;3.20;99.90
44271;DHT22;29963;44.594;11.368;2023-02-01T06:32:25;3.20;99.90
44271;DHT22;29963;44.594;11.368;2023-02-01T06:34:51;3.20;99.90
44271;DHT22;29963;44.594;11.368;2023-02-01T06:37:21;3.20;99.90
44271;DHT22;29963;44.594;11.368;2023-02-01T06:39:48;3.30;99.90
44271;DHT22;29963;44.594;11.368;2023-02-01T06:42:14;3.40;99.90
44271;DHT22;29963;44.594;11.368;2023-02-01T06:44:40;3.40;99.90
44271;DHT22;29963;44.594;11.368;2023-02-01T06:47:08;3.50;99.90
44271;DHT22;29963;44.594;11.368;2023-02-01T06:49:34;3.40;99.90
44271;DHT22;29963;44.594;11.368;2023-02-01T06:51:59;3.50;99.90
44271;DHT22;29963;44.594;11.368;2023-02-01T06:54:26;3.50;99.90
44271;DHT22;29963;44.594;11.368;2023-02-01T06:56:52;3.40;99.90
44271;DHT22;29963;44.594;11.368;2023-02-01T06:59:17;3.50;99.90
44271;DHT22;29963;44.594;11.368;2023-02-01T07:01:43;3.50;99.90
44271;DHT22;29963;44.594;11.368;2023-02-01T07:04:11;3.50;99.90
44271;DHT22;29963;44.594;11.368;2023-02-01T07:06:37;3.50;99.90
44271;DHT22;29963;44.594;11.368;2023-02-01T07:09:03;3.40;99.90
44271;DHT22;29963;44.594;11.368;2023-02-01T07:11:29;3.40;99.90
44271;DHT22;29963;44.594;11.368;2023-02-01T07:13:56;3.30;99.90
44271;DHT22;29963;44.594;11.368;2023-02-01T07:16:21;3.10;99.90
44271;DHT22;29963;44.594;11.368;2023-02-01T07:18:49;2.90;99.90
44271;DHT22;29963;44.594;11.368;2023-02-01T07:21:15;2.70;99.90
44271;DHT22;29963;44.594;11.368;2023-02-01T07:23:40;2.70;99.90
44271;DHT22;29963;44.594;11.368;2023-02-01T07:26:07;2.80;99.90
44271;DHT22;29963;44.594;11.368;2023-02-01T07:28:37;2.80;99.90
44271;DHT22;29963;44.594;11.368;2023-02-01T07:31:07;2.90;99.90
44271;DHT22;29963;44.594;11.368;2023-02-01T07:33:33;2.90;99.90
44271;DHT22;29963;44.594;11.368;2023-02-01T07:36:01;2.90;99.90
44271;DHT22;29963;44.594;11.368;2023-02-01T07:38:28;3.00;99.90
44271;DHT22;29963;44.594;11.368;2023-02-01T07:40:58;3.10;99.90
44271;DHT22;29963;44.594;11.368;2023-02-01T07:43:24;3.20;99.90
44271;DHT22;29963;44.594;11.368;2023-02-01T07:45:53;3.30;99.90
44271;DHT22;29963;44.594;11.368;2023-02-01T07:48:21;3.40;99.90
44271;DHT22;29963;44.594;11.368;2023-02-01T07:50:47;3.50;99.90
44271;DHT22;29963;44.594;11.368;2023-02-01T07:53:13;3.60;99.90
44271;DHT22;29963;44.594;11.368;2023-02-01T07:55:39;3.70;99.90
44271;DHT22;29963;44.594;11.368;2023-02-01T07:58:04;3.80;99.90
44271;DHT22;29963;44.594;11.368;2023-02-01T08:00:30;3.80;99.90
44271;DHT22;29963;44.594;11.368;2023-02-01T08:03:14;3.90;99.90
44271;DHT22;29963;44.594;11.368;2023-02-01T08:05:40;3.90;99.90
44271;DHT22;29963;44.594;11.368;2023-02-01T08:08:06;4.00;99.90
44271;DHT22;29963;44.594;11.368;2023-02-01T08:10:32;4.00;99.90
44271;DHT22;29963;44.594;11.368;2023-02-01T08:13:00;4.10;99.90
44271;DHT22;29963;44.594;11.368;2023-02-01T08:15:27;4.10;99.90
44271;DHT22;29963;44.594;11.368;2023-02-01T08:17:53;4.10;99.90
44271;DHT22;29963;44.594;11.368;2023-02-01T08:20:24;4.20;99.90
44271;DHT22;29963;44.594;11.368;2023-02-01T08:22:51;4.10;99.90
44271;DHT22;29963;44.594;11.368;2023-02-01T08:25:17;4.00;99.90
44271;DHT22;29963;44.594;11.368;2023-02-01T08:27:43;4.00;99.90
44271;DHT22;29963;44.594;11.368;2023-02-01T08:30:09;4.10;99.90
44271;DHT22;29963;44.594;11.368;2023-02-01T08:32:35;4.30;99.90
44271;DHT22;29963;44.594;11.368;2023-02-01T08:35:01;4.40;99.90
44271;DHT22;29963;44.594;11.368;2023-02-01T08:37:27;4.50;99.90
44271;DHT22;29963;44.594;11.368;2023-02-01T08:39:53;4.60;99.90
44271;DHT22;29963;44.594;11.368;2023-02-01T08:42:18;4.70;99.90
44271;DHT22;29963;44.594;11.368;2023-02-01T08:45:03;4.80;99.90
44271;DHT22;29963;44.594;11.368;2023-02-01T08:47:29;4.80;99.90
44271;DHT22;29963;44.594;11.368;2023-02-01T08:49:55;4.80;99.90
44271;DHT22;29963;44.594;11.368;2023-02-01T08:52:21;4.90;99.90
44271;DHT22;29963;44.594;11.368;2023-02-01T08:54:46;4.90;99.90
44271;DHT22;29963;44.594;11.368;2023-02-01T08:57:12;5.00;99.90
44271;DHT22;29963;44.594;11.368;2023-02-01T08:59:38;5.00;99.90
44271;DHT22;29963;44.594;11.368;2023-02-01T09:02:04;5.10;99.90
44271;DHT22;29963;44.594;11.368;2023-02-01T09:04:30;5.20;99.90
44271;DHT22;29963;44.594;11.368;2023-02-01T09:06:55;5.20;99.90
44271;DHT22;29963;44.594;11.368;2023-02-01T09:09:24;5.30;99.90
44271;DHT22;29963;44.594;11.368;2023-02-01T09:11:52;5.30;99.90
44271;DHT22;29963;44.594;11.368;2023-02-01T09:14:18;5.40;99.90
44271;DHT22;29963;44.594;11.368;2023-02-01T09:16:44;5.50;99.90
44271;DHT22;29963;44.594;11.368;2023-02-01T09:19:09;5.50;99.90
44271;DHT22;29963;44.594;11.368;2023-02-01T09:21:35;5.60;99.90
44271;DHT22;29963;44.594;11.368;2023-02-01T09:24:01;5.70;99.90
44271;DHT22;29963;44.594;11.368;2023-02-01T09:26:27;5.70;99.90
44271;DHT22;29963;44.594;11.368;2023-02-01T09:28:53;5.80;99.90
44271;DHT22;29963;44.594;11.368;2023-02-01T09:31:19;5.90;99.90
44271;DHT22;29963;44.594;11.368;2023-02-01T09:33:44;6.00;99.90
44271;DHT22;29963;44.594;11.368;2023-02-01T09:36:10;6.10;99.90
44271;DHT22;29963;44.594;11.368;2023-02-01T09:38:36;6.20;99.90
44271;DHT22;29963;44.594;11.368;2023-02-01T09:41:06;6.30;99.90
44271;DHT22;29963;44.594;11.368;2023-02-01T09:43:48;6.30;99.90
44271;DHT22;29963;44.594;11.368;2023-02-01T09:46:24;6.40;99.90
44271;DHT22;29963;44.594;11.368;2023-02-01T09:48:54;6.50;99.90
44271;DHT22;29963;44.594;11.368;2023-02-01T09:51:36;6.50;99.90
44271;DHT22;29963;44.594;11.368;2023-02-01T10:00:15;6.70;99.90
44271;DHT22;29963;44.594;11.368;2023-02-01T10:02:42;6.80;99.90
44271;DHT22;29963;44.594;11.368;2023-02-01T10:05:13;6.90;99.90
44271;DHT22;29963;44.594;11.368;2023-02-01T10:13:08;7.10;99.90
44271;DHT22;29963;44.594;11.368;2023-02-01T10:24:09;7.30;99.90
44271;DHT22;29963;44.594;11.368;2023-02-01T10:26:44;7.30;99.90
44271;DHT22;29963;44.594;11.368;2023-02-01T10:29:20;7.40;99.90
44271;DHT22;29963;44.594;11.368;2023-02-01T10:31:47;7.50;99.90
44271;DHT22;29963;44.594;11.368;2023-02-01T10:34:27;7.60;99.90
44271;DHT22;29963;44.594;11.368;2023-02-01T10:37:17;7.60;99.90
44271;DHT22;29963;44.594;11.368;2023-02-01T10:39:47;7.70;99.90
44271;DHT22;29963;44.594;11.368;2023-02-01T10:42:14;7.80;99.90
44271;DHT22;29963;44.594;11.368;2023-02-01T10:44:42;7.90;99.90
44271;DHT22;29963;44.594;11.368;2023-02-01T10:47:10;8.00;99.90
44271;DHT22;29963;44.594;11.368;2023-02-01T10:49:49;8.10;99.90
44271;DHT22;29963;44.594;11.368;2023-02-01T10:54:53;8.10;99.90
44271;DHT22;29963;44.594;11.368;2023-02-01T10:57:26;8.20;99.90
44271;DHT22;29963;44.594;11.368;2023-02-01T10:59:55;8.20;99.90
44271;DHT22;29963;44.594;11.368;2023-02-01T11:02:34;8.30;99.90
44271;DHT22;29963;44.594;11.368;2023-02-01T11:05:07;8.30;99.90
44271;DHT22;29963;44.594;11.368;2023-02-01T11:07:39;8.30;99.90
44271;DHT22;29963;44.594;11.368;2023-02-01T11:10:38;8.40;99.90
44271;DHT22;29963;44.594;11.368;2023-02-01T11:13:14;8.50;99.90
44271;DHT22;29963;44.594;11.368;2023-02-01T11:15:54;8.60;99.90
44271;DHT22;29963;44.594;11.368;2023-02-01T11:18:26;8.60;99.90
44271;DHT22;29963;44.594;11.368;2023-02-01T11:20:52;8.70;99.90
44271;DHT22;29963;44.594;11.368;2023-02-01T11:23:22;8.80;99.90
44271;DHT22;29963;44.594;11.368;2023-02-01T11:26:00;8.90;99.90
44271;DHT22;29963;44.594;11.368;2023-02-01T11:28:31;8.90;99.90
44271;DHT22;29963;44.594;11.368;2023-02-01T11:31:00;8.80;99.90
44271;DHT22;29963;44.594;11.368;2023-02-01T11:33:34;8.90;99.90
44271;DHT22;29963;44.594;11.368;2023-02-01T11:36:15;9.00;99.90
44271;DHT22;29963;44.594;11.368;2023-02-01T11:38:53;9.10;99.90
44271;DHT22;29963;44.594;11.368;2023-02-01T11:41:24;9.20;99.90
44271;DHT22;29963;44.594;11.368;2023-02-01T11:43:53;9.30;99.90
44271;DHT22;29963;44.594;11.368;2023-02-01T11:46:28;9.30;99.90
44271;DHT22;29963;44.594;11.368;2023-02-01T11:49:14;9.40;99.90
44271;DHT22;29963;44.594;11.368;2023-02-01T12:00:48;9.70;99.90
44271;DHT22;29963;44.594;11.368;2023-02-01T12:14:33;10.10;99.90
44271;DHT22;29963;44.594;11.368;2023-02-01T12:46:03;11.10;99.90
44271;DHT22;29963;44.594;11.368;2023-02-01T12:51:17;11.10;99.90
44271;DHT22;29963;44.594;11.368;2023-02-01T12:56:30;11.20;99.90
44271;DHT22;29963;44.594;11.368;2023-02-01T12:58:59;11.30;99.90
44271;DHT22;29963;44.594;11.368;2023-02-01T13:01:48;11.40;99.90
44271;DHT22;29963;44.594;11.368;2023-02-01T13:04:33;11.50;99.90
44271;DHT22;29963;44.594;11.368;2023-02-01T13:07:22;11.50;99.90
44271;DHT22;29963;44.594;11.368;2023-02-01T13:12:56;11.50;99.90
44271;DHT22;29963;44.594;11.368;2023-02-01T13:15:30;11.60;99.90
44271;DHT22;29963;44.594;11.368;2023-02-01T13:18:01;11.60;99.90
44271;DHT22;29963;44.594;11.368;2023-02-01T13:21:05;11.70;99.90
44271;DHT22;29963;44.594;11.368;2023-02-01T13:23:38;11.80;99.90
44271;DHT22;29963;44.594;11.368;2023-02-01T13:26:05;11.80;99.90
44271;DHT22;29963;44.594;11.368;2023-02-01T13:37:31;12.30;99.90
44271;DHT22;29963;44.594;11.368;2023-02-01T13:42:48;12.50;99.90
44271;DHT22;29963;44.594;11.368;2023-02-01T13:45:24;12.50;99.90
44271;DHT22;29963;44.594;11.368;2023-02-01T13:47:54;12.60;99.90
44271;DHT22;29963;44.594;11.368;2023-02-01T13:50:30;12.70;99.90
44271;DHT22;29963;44.594;11.368;2023-02-01T13:52:58;12.70;99.90
44271;DHT22;29963;44.594;11.368;2023-02-01T13:55:26;12.80;99.90
44271;DHT22;29963;44.594;11.368;2023-02-01T13:58:20;12.90;99.90
44271;DHT22;29963;44.594;11.368;2023-02-01T14:00:45;13.00;99.90
44271;DHT22;29963;44.594;11.368;2023-02-01T14:03:22;13.10;99.90
44271;DHT22;29963;44.594;11.368;2023-02-01T14:19:23;13.90;99.90
44271;DHT22;29963;44.594;11.368;2023-02-01T14:24:36;15.40;99.90
44271;DHT22;29963;44.594;11.368;2023-02-01T14:29:44;17.00;99.90
44271;DHT22;29963;44.594;11.368;2023-02-01T14:32:21;17.70;99.90
44271;DHT22;29963;44.594;11.368;2023-02-01T14:40:03;18.60;99.60
44271;DHT22;29963;44.594;11.368;2023-02-01T15:06:36;18.60;98.50
44271;DHT22;29963;44.594;11.368;2023-02-01T15:09:18;19.10;97.60
44271;DHT22;29963;44.594;11.368;2023-02-01T15:17:37;20.80;94.50
44271;DHT22;29963;44.594;11.368;2023-02-01T15:23:03;21.20;93.70
44271;DHT22;29963;44.594;11.368;2023-02-01T15:25:35;21.30;93.40
44271;DHT22;29963;44.594;11.368;2023-02-01T15:28:02;21.40;93.20
44271;DHT22;29963;44.594;11.368;2023-02-01T15:30:31;21.50;92.80
44271;DHT22;29963;44.594;11.368;2023-02-01T15:35:42;21.60;92.40
44271;DHT22;29963;44.594;11.368;2023-02-01T15:43:26;20.90;92.70
44271;DHT22;29963;44.594;11.368;2023-02-01T15:45:59;20.70;92.90
44271;DHT22;29963;44.594;11.368;2023-02-01T15:48:26;20.40;92.90
44271;DHT22;29963;44.594;11.368;2023-02-01T15:50:53;20.30;93.60
44271;DHT22;29963;44.594;11.368;2023-02-01T15:53:24;20.10;93.40
44271;DHT22;29963;44.594;11.368;2023-02-01T15:55:55;19.80;93.80
44271;DHT22;29963;44.594;11.368;2023-02-01T15:58:23;19.50;93.80
44271;DHT22;29963;44.594;11.368;2023-02-01T16:00:58;19.20;94.10
44271;DHT22;29963;44.594;11.368;2023-02-01T16:03:41;18.90;94.50
44271;DHT22;29963;44.594;11.368;2023-02-01T16:06:18;18.60;95.00
44271;DHT22;29963;44.594;11.368;2023-02-01T16:11:41;17.80;96.40
44271;DHT22;29963;44.594;11.368;2023-02-01T16:14:09;17.30;96.90
44271;DHT22;29963;44.594;11.368;2023-02-01T16:16:35;16.70;97.50
44271;DHT22;29963;44.594;11.368;2023-02-01T16:19:00;16.10;98.60
44271;DHT22;29963;44.594;11.368;2023-02-01T16:21:26;15.60;99.50
44271;DHT22;29963;44.594;11.368;2023-02-01T16:23:52;15.20;99.90
44271;DHT22;29963;44.594;11.368;2023-02-01T16:26:19;14.80;99.90
44271;DHT22;29963;44.594;11.368;2023-02-01T16:28:45;14.40;99.90
44271;DHT22;29963;44.594;11.368;2023-02-01T16:31:13;14.10;99.90
44271;DHT22;29963;44.594;11.368;2023-02-01T16:33:49;13.90;99.90
44271;DHT22;29963;44.594;11.368;2023-02-01T16:36:18;13.60;99.90
44271;DHT22;29963;44.594;11.368;2023-02-01T16:38:45;13.40;99.90
44271;DHT22;29963;44.594;11.368;2023-02-01T16:41:14;13.10;99.90
44271;DHT22;29963;44.594;11.368;2023-02-01T16:43:42;13.00;99.90
44271;DHT22;29963;44.594;11.368;2023-02-01T16:46:17;12.80;99.90
44271;DHT22;29963;44.594;11.368;2023-02-01T16:48:48;12.70;99.90
44271;DHT22;29963;44.594;11.368;2023-02-01T16:51:16;12.50;99.90
44271;DHT22;29963;44.594;11.368;2023-02-01T16:53:43;12.40;99.90
44271;DHT22;29963;44.594;11.368;2023-02-01T16:56:19;12.30;99.90
44271;DHT22;29963;44.594;11.368;2023-02-01T16:58:45;12.10;99.90
44271;DHT22;29963;44.594;11.368;2023-02-01T17:01:12;12.00;99.90
44271;DHT22;29963;44.594;11.368;2023-02-01T17:03:39;11.80;99.90
44271;DHT22;29963;44.594;11.368;2023-02-01T17:06:06;11.70;99.90
44271;DHT22;29963;44.594;11.368;2023-02-01T17:08:40;11.60;99.90
44271;DHT22;29963;44.594;11.368;2023-02-01T17:11:07;11.60;99.90
44271;DHT22;29963;44.594;11.368;2023-02-01T17:13:33;11.50;99.90
44271;DHT22;29963;44.594;11.368;2023-02-01T17:16:03;11.40;99.90
44271;DHT22;29963;44.594;11.368;2023-02-01T17:18:34;11.30;99.90
44271;DHT22;29963;44.594;11.368;2023-02-01T17:21:02;11.30;99.90
44271;DHT22;29963;44.594;11.368;2023-02-01T17:23:29;11.20;99.90
44271;DHT22;29963;44.594;11.368;2023-02-01T17:25:57;11.10;99.90
44271;DHT22;29963;44.594;11.368;2023-02-01T17:28:23;11.10;99.90
44271;DHT22;29963;44.594;11.368;2023-02-01T17:30:49;11.00;99.90
44271;DHT22;29963;44.594;11.368;2023-02-01T17:33:25;11.00;99.90
44271;DHT22;29963;44.594;11.368;2023-02-01T17:35:54;11.00;99.90
44271;DHT22;29963;44.594;11.368;2023-02-01T17:38:20;10.80;99.90
44271;DHT22;29963;44.594;11.368;2023-02-01T17:40:46;10.80;99.90
44271;DHT22;29963;44.594;11.368;2023-02-01T17:43:17;10.70;99.90
44271;DHT22;29963;44.594;11.368;2023-02-01T17:45:45;10.70;99.90
44271;DHT22;29963;44.594;11.368;2023-02-01T17:48:19;10.70;99.90
44271;DHT22;29963;44.594;11.368;2023-02-01T17:50:47;10.60;99.90
44271;DHT22;29963;44.594;11.368;2023-02-01T17:53:14;10.60;99.90
44271;DHT22;29963;44.594;11.368;2023-02-01T17:55:43;10.50;99.90
44271;DHT22;29963;44.594;11.368;2023-02-01T17:58:14;10.50;99.90
44271;DHT22;29963;44.594;11.368;2023-02-01T18:00:40;10.50;99.90
44271;DHT22;29963;44.594;11.368;2023-02-01T18:03:29;10.40;99.90
44271;DHT22;29963;44.594;11.368;2023-02-01T18:05:55;10.40;99.90
44271;DHT22;29963;44.594;11.368;2023-02-01T18:08:26;10.30;99.90
44271;DHT22;29963;44.594;11.368;2023-02-01T18:10:57;10.30;99.90
44271;DHT22;29963;44.594;11.368;2023-02-01T18:13:27;10.20;99.90
44271;DHT22;29963;44.594;11.368;2023-02-01T18:15:53;10.20;99.90
44271;DHT22;29963;44.594;11.368;2023-02-01T18:18:20;10.20;99.90
44271;DHT22;29963;44.594;11.368;2023-02-01T18:20:47;10.20;99.90
44271;DHT22;29963;44.594;11.368;2023-02-01T18:23:22;10.10;99.90
44271;DHT22;29963;44.594;11.368;2023-02-01T18:25:49;10.10;99.90
44271;DHT22;29963;44.594;11.368;2023-02-01T18:28:17;10.00;99.90
44271;DHT22;29963;44.594;11.368;2023-02-01T18:30:46;10.00;99.90
44271;DHT22;29963;44.594;11.368;2023-02-01T18:33:14;9.90;99.90
44271;DHT22;29963;44.594;11.368;2023-02-01T18:35:40;9.90;99.90
44271;DHT22;29963;44.594;11.368;2023-02-01T18:38:06;9.80;99.90
44271;DHT22;29963;44.594;11.368;2023-02-01T18:41:07;9.70;99.90
44271;DHT22;29963;44.594;11.368;2023-02-01T18:43:26;9.70;99.90
44271;DHT22;29963;44.594;11.368;2023-02-01T18:45:52;9.60;99.90
44271;DHT22;29963;44.594;11.368;2023-02-01T18:48:22;9.60;99.90
44271;DHT22;29963;44.594;11.368;2023-02-01T18:50:48;9.50;99.90
44271;DHT22;29963;44.594;11.368;2023-02-01T18:53:20;9.50;99.90
44271;DHT22;29963;44.594;11.368;2023-02-01T18:55:48;9.40;99.90
44271;DHT22;29963;44.594;11.368;2023-02-01T18:58:15;9.40;99.90
44271;DHT22;29963;44.594;11.368;2023-02-01T19:00:42;9.40;99.90